Airfield :
LOGIN :

Register | Disclaimer

   EN    FR    IT 

 










Legend :    VFR   Marginal VFR   IFR   Intensive IFR   Very Intensive IFR
Visi :
Ceiling :
>= 8 km
>= 3000ft
5 to 8 km
1000 to 3000 ft
1500m to 5 km
500 to 1000 ft
800 to 1500m
200 to 500 ft
< 800m
< 200 ft
Symbols :   Thunderstorms  Fog  Heavy snow  Heavy precipitations  Wind > 20 kt
SIGMETs :     Misc.  Thunderstorms  Icing  Turbulence  Mountain Waves  Volcanic Ashes






- Airport Elevation : 287 ft


LFRL - Lanveoc Poulmic

CURRENT METAR :
  • 260500Z AUTO 20007KT 9999 BKN013 BKN038 OVC062 09/08 Q1013

EXPIRED METARs :
  • 260430Z AUTO 20008KT 9999 SCT030 BKN038 OVC062 08/08 Q1013
  • 260400Z AUTO 20006KT 9999 FEW015 BKN037 BKN043 08/07 Q1013
  • 260330Z AUTO 20007KT 9999 OVC048 08/07 Q1013
  • 260300Z AUTO 21007KT 9999 BKN049 BKN080 07/06 Q1013
  • 260230Z AUTO 22006KT CAVOK 07/06 Q1013

Expired Forecast.



MET'MAP, your aeronautical weather chart ! - Copyright ORBIFLY December 2007 - Disclaimer

ORBIFLY MET'MAP TEAM :

Programming & Development : Alexandra Zaïnal
Concept & original design : Baudouin d'Aumeries
Assistance for programming : Marc-Olivier Méhu
Technical & hardware support : Manuel Goepfert

Contact : metmap@orbifly.com




SOURCES & CREDITS :

   NOAA